Search for airport 
image banner adimage banner adimage banner ad
image banner ad

PA97 - Warren General Hospital

Located in Warren, United States

ICAO - PA97, IATA -

Data provided by Airmate  

General information

Coordinates: N41°50'39" W79°9'17"
Elevation is 1179 feet MSL.
Magnetic variation is -10° East
View others Airports in Pennsylvania

Operational data

Special qualification required
Current time UTC:
Current local time:
Weather at : KJHW - Chautauqua County/Jamestown ( 35 km )
METAR: KJHW 091256Z AUTO 15010G17KT 120V210 10SM CLR 04/02 A3003 RMK AO2 SLP185 T00440022
TAF: KJHW 091120Z 0912/1012 24004KT P6SM FEW250 FM091300 18004KT P6SM BKN120 FM091700 14006KT 5SM -RA BR OVC012 FM092100 07010KT 2SM RA BR OVC003 FM100400 36008KT P6SM OVC003
View NOTAMs / SUP AIP / TFR affecting this airport [VIEW]
Communications frequencies: [VIEW]

Runways:

Airport contact information

Address: Warren United States

Satellite view of PA97